CFEEW CCY3-CCH3

Flight info

Callsign CFEEW
Flight time N/A
Altitude 4500
Route DCT
Aircraft B350/L-VGD/A

Departure

Time 2026-04-10 12:50
Airport Sussex Airport (CCY3)

Arrival

Time N/A
Airport CCH3
Time Latitude Longitude Altitude Speed Heading
2026-04-10 12:46 45.68650 -65.54176 436 ft 0 kts 200°
2026-04-10 12:49 45.68565 -65.54219 434 ft 55 kts 200°
2026-04-10 12:49 45.67945 -65.54535 488 ft 126 kts 201°
2026-04-10 12:49 45.67087 -65.55149 825 ft 142 kts 206°
2026-04-10 12:50 45.66088 -65.55403 1413 ft 151 kts 193°
2026-04-10 12:50 45.65350 -65.56227 2315 ft 139 kts 246°
2026-04-10 12:50 45.65555 -65.57624 3047 ft 162 kts 300°
2026-04-10 12:50 45.66469 -65.58684 3690 ft 172 kts 314°
2026-04-10 12:51 45.67413 -65.59702 4350 ft 169 kts 313°
2026-04-10 12:51 45.68010 -65.61015 4988 ft 155 kts 274°
2026-04-10 12:51 45.67972 -65.62527 5607 ft 155 kts 265°
2026-04-10 12:51 45.67900 -65.64080 6223 ft 157 kts 264°
2026-04-10 12:52 45.67780 -65.65640 6820 ft 161 kts 262°
2026-04-10 12:52 45.67644 -65.67362 6893 ft 188 kts 263°
2026-04-10 12:52 45.67502 -65.69306 6899 ft 204 kts 263°
2026-04-10 12:52 45.67350 -65.71380 6899 ft 215 kts 263°
2026-04-10 12:53 45.67184 -65.73529 6899 ft 220 kts 263°
2026-04-10 12:53 45.67009 -65.75710 6904 ft 221 kts 263°
2026-04-10 12:53 45.66840 -65.77864 6902 ft 221 kts 263°
2026-04-10 12:53 45.66664 -65.80041 6902 ft 221 kts 263°
2026-04-10 12:54 45.66498 -65.82222 6906 ft 221 kts 263°
2026-04-10 12:54 45.66355 -65.84410 6894 ft 221 kts 264°
2026-04-10 12:54 45.66220 -65.86637 6892 ft 228 kts 264°
2026-04-10 12:54 45.66094 -65.88918 6894 ft 232 kts 264°
2026-04-10 12:55 45.65969 -65.91231 6894 ft 235 kts 264°
2026-04-10 12:55 45.65839 -65.93568 6892 ft 237 kts 264°
2026-04-10 12:55 45.65707 -65.95927 6894 ft 239 kts 264°
2026-04-10 12:55 45.65574 -65.98260 6896 ft 239 kts 264°
2026-04-10 12:56 45.65444 -66.00633 6892 ft 240 kts 264°
2026-04-10 12:56 45.65305 -66.02998 6886 ft 240 kts 264°
2026-04-10 12:56 45.65160 -66.05379 6883 ft 241 kts 264°
2026-04-10 12:56 45.65067 -66.07772 6890 ft 242 kts 270°
2026-04-10 12:57 45.65198 -66.10146 6887 ft 233 kts 274°
2026-04-10 12:57 45.65336 -66.12407 6798 ft 227 kts 273°
2026-04-10 12:57 45.65469 -66.14593 6484 ft 215 kts 273°
2026-04-10 12:57 45.65594 -66.16644 6170 ft 206 kts 273°
2026-04-10 12:58 45.65718 -66.18662 5841 ft 202 kts 273°
2026-04-10 12:58 45.65849 -66.20656 5527 ft 200 kts 274°
2026-04-10 12:58 45.65983 -66.22627 5213 ft 199 kts 274°
2026-04-10 12:58 45.66116 -66.24586 4900 ft 197 kts 273°
2026-04-10 12:59 45.66261 -66.26525 4599 ft 195 kts 274°
2026-04-10 12:59 45.66413 -66.28442 4285 ft 193 kts 274°
2026-04-10 12:59 45.66571 -66.30332 3975 ft 190 kts 274°
2026-04-10 12:59 45.66744 -66.32202 3676 ft 188 kts 274°
2026-04-10 13:00 45.66923 -66.34017 3361 ft 186 kts 274°
2026-04-10 13:00 45.67112 -66.35829 3042 ft 182 kts 273°
2026-04-10 13:00 45.67332 -66.37596 2725 ft 179 kts 273°
2026-04-10 13:00 45.67559 -66.39343 2413 ft 178 kts 273°
2026-04-10 13:01 45.67798 -66.41085 2167 ft 177 kts 274°
2026-04-10 13:01 45.68043 -66.42756 2157 ft 168 kts 274°
2026-04-10 13:01 45.68049 -66.44289 2155 ft 138 kts 243°
2026-04-10 13:01 45.67574 -66.45366 2151 ft 123 kts 234°
2026-04-10 13:02 45.67133 -66.46355 2158 ft 116 kts 235°
2026-04-10 13:02 45.66732 -66.47249 2171 ft 98 kts 234°
2026-04-10 13:02 45.66372 -66.48018 2161 ft 89 kts 234°
2026-04-10 13:02 45.66063 -66.48870 1881 ft 104 kts 242°
2026-04-10 13:03 45.65807 -66.49850 1806 ft 109 kts 244°
2026-04-10 13:03 45.65533 -66.50909 1781 ft 112 kts 243°
2026-04-10 13:03 45.65299 -66.51954 1842 ft 113 kts 246°
2026-04-10 13:03 45.65037 -66.53071 1651 ft 124 kts 244°
2026-04-10 13:04 45.64642 -66.54117 1510 ft 121 kts 230°
2026-04-10 13:04 45.64127 -66.55093 1213 ft 127 kts 229°
2026-04-10 13:04 45.63512 -66.55949 1143 ft 118 kts 210°
2026-04-10 13:04 45.62724 -66.56097 760 ft 118 kts 170°
2026-04-10 13:05 45.61932 -66.55619 466 ft 128 kts 154°
2026-04-10 13:05 45.61143 -66.54937 211 ft 135 kts 146°
2026-04-10 13:05 45.60480 -66.54295 82 ft 51 kts 149°
2026-04-10 13:05 45.60473 -66.54207 85 ft 27 kts 335°
2026-04-10 13:06 45.60662 -66.54442 77 ft 41 kts 325°
2026-04-10 13:06 45.60914 -66.54656 74 ft 26 kts 332°
2026-04-10 13:06 45.60929 -66.54707 75 ft 0 kts 146°